createdAt,value
2023-07-10T00:01:46.500Z,23.28
2023-07-10T00:04:17.078Z,23.30
2023-07-10T00:06:45.317Z,22.96
2023-07-10T00:09:12.830Z,22.67
2023-07-10T00:11:43.033Z,23.03
2023-07-10T00:14:19.058Z,23.14
2023-07-10T00:16:46.542Z,23.10
2023-07-10T00:19:15.502Z,23.09
2023-07-10T00:21:43.235Z,23.10
2023-07-10T00:24:11.155Z,22.93
2023-07-10T00:26:39.701Z,23.23
2023-07-10T00:29:17.074Z,23.10
2023-07-10T00:31:44.677Z,23.00
2023-07-10T00:34:15.534Z,23.23
2023-07-10T00:36:43.785Z,22.84
2023-07-10T00:39:21.494Z,22.87
2023-07-10T00:41:51.410Z,23.04
2023-07-10T00:44:25.079Z,22.68
2023-07-10T00:46:57.357Z,22.79
2023-07-10T00:49:31.444Z,23.16
2023-07-10T00:52:02.516Z,23.06
2023-07-10T00:54:33.942Z,23.13
2023-07-10T00:57:04.073Z,22.93
2023-07-10T00:59:38.207Z,23.26
2023-07-10T01:02:19.849Z,22.82
2023-07-10T01:04:53.893Z,22.59
2023-07-10T01:07:23.654Z,22.80
2023-07-10T01:09:54.755Z,22.48
2023-07-10T01:12:22.969Z,22.63
2023-07-10T01:14:51.836Z,22.76
2023-07-10T01:17:20.628Z,22.52
2023-07-10T01:19:50.195Z,22.85
2023-07-10T01:22:19.066Z,22.79
2023-07-10T01:24:53.215Z,22.56
2023-07-10T01:27:23.303Z,22.77
2023-07-10T01:29:57.404Z,23.10
2023-07-10T01:32:28.972Z,23.00
2023-07-10T01:35:01.394Z,23.11
2023-07-10T01:37:30.335Z,22.90
2023-07-10T01:39:57.840Z,22.89
2023-07-10T01:42:25.601Z,22.63
2023-07-10T01:44:54.088Z,22.85
2023-07-10T01:47:22.457Z,22.96
2023-07-10T01:49:53.852Z,22.96
2023-07-10T01:52:23.064Z,22.68
2023-07-10T01:54:54.049Z,22.80
2023-07-10T01:57:24.960Z,22.99
2023-07-10T01:59:53.005Z,22.95
2023-07-10T02:02:20.808Z,22.85
2023-07-10T02:04:48.347Z,23.03
2023-07-10T02:07:15.823Z,22.89
2023-07-10T02:09:43.305Z,22.89
2023-07-10T02:12:12.439Z,22.61
2023-07-10T02:14:39.913Z,22.62
2023-07-10T02:17:07.828Z,22.90
2023-07-10T02:19:35.381Z,22.77
2023-07-10T02:22:02.895Z,22.87
2023-07-10T02:24:30.413Z,22.81
2023-07-10T02:26:58.096Z,22.43
2023-07-10T02:29:27.015Z,22.60
2023-07-10T02:31:54.617Z,22.68
2023-07-10T02:34:22.173Z,22.75
2023-07-10T02:36:49.658Z,22.96
2023-07-10T02:39:17.292Z,22.85
2023-07-10T02:41:44.795Z,22.84
2023-07-10T02:44:12.385Z,22.85
2023-07-10T02:46:41.310Z,22.70
2023-07-10T02:49:08.848Z,22.92
2023-07-10T02:51:36.386Z,22.42
2023-07-10T02:54:10.851Z,22.45
2023-07-10T02:56:38.370Z,22.44
2023-07-10T02:59:05.970Z,22.73
2023-07-10T03:01:33.718Z,22.67
2023-07-10T03:04:02.538Z,22.69
2023-07-10T03:06:30.011Z,22.44
2023-07-10T03:08:59.483Z,22.48
2023-07-10T03:11:27.103Z,22.35
2023-07-10T03:13:54.905Z,22.33
2023-07-10T03:16:22.464Z,22.32
2023-07-10T03:18:49.935Z,22.25
2023-07-10T03:21:18.722Z,22.37
2023-07-10T03:23:49.355Z,22.38
2023-07-10T03:26:17.027Z,22.17
2023-07-10T03:28:44.894Z,22.06
2023-07-10T03:31:12.735Z,22.23
2023-07-10T03:33:40.229Z,22.26
2023-07-10T03:36:09.880Z,22.38
2023-07-10T03:38:38.836Z,22.28
2023-07-10T03:41:06.929Z,22.26
2023-07-10T03:43:34.463Z,22.13
2023-07-10T03:46:02.268Z,21.70
2023-07-10T03:48:30.123Z,21.97
2023-07-10T03:50:57.751Z,22.18
2023-07-10T03:53:28.905Z,22.37
2023-07-10T03:55:57.945Z,22.19
2023-07-10T03:58:29.088Z,22.15
2023-07-10T04:01:00.338Z,22.15
2023-07-10T04:03:30.515Z,22.17
2023-07-10T04:05:59.319Z,22.14
2023-07-10T04:08:29.416Z,22.08
2023-07-10T04:11:00.861Z,22.07
2023-07-10T04:13:28.663Z,22.11
2023-07-10T04:16:01.273Z,22.15
2023-07-10T04:18:31.002Z,22.16
2023-07-10T04:20:59.577Z,22.22
2023-07-10T04:23:27.792Z,22.37
2023-07-10T04:25:55.941Z,22.13
2023-07-10T04:28:25.211Z,22.03
2023-07-10T04:30:53.906Z,22.10
2023-07-10T04:33:22.317Z,22.05
2023-07-10T04:35:55.831Z,21.98
2023-07-10T04:38:25.096Z,21.90
2023-07-10T04:40:53.637Z,21.96
2023-07-10T04:43:21.655Z,21.85
2023-07-10T04:45:51.000Z,21.97
2023-07-10T04:48:18.548Z,22.03
2023-07-10T04:50:48.580Z,22.20
2023-07-10T04:53:16.261Z,22.19
2023-07-10T04:55:44.574Z,22.37
2023-07-10T04:58:12.564Z,22.13
2023-07-10T05:00:40.089Z,22.29
2023-07-10T05:03:09.778Z,22.32
2023-07-10T05:05:37.775Z,22.07
2023-07-10T05:08:05.866Z,22.22
2023-07-10T05:10:33.494Z,22.28
2023-07-10T05:13:00.972Z,22.13
2023-07-10T05:15:28.452Z,22.13
2023-07-10T05:17:56.044Z,22.28
2023-07-10T05:20:25.038Z,22.21
2023-07-10T05:22:52.776Z,22.14
2023-07-10T05:25:21.045Z,22.35
2023-07-10T05:27:48.557Z,22.31
2023-07-10T05:30:16.171Z,22.09
2023-07-10T05:32:43.731Z,22.06
2023-07-10T05:35:11.320Z,21.87
2023-07-10T05:37:40.190Z,22.02
2023-07-10T05:40:09.157Z,21.80
2023-07-10T05:42:36.621Z,22.08
2023-07-10T05:45:04.123Z,22.09
2023-07-10T05:47:31.631Z,22.14
2023-07-10T05:49:59.220Z,22.14
2023-07-10T05:52:26.682Z,22.22
2023-07-10T05:54:55.516Z,22.10
2023-07-10T05:57:23.950Z,22.25
2023-07-10T05:59:51.485Z,21.97
2023-07-10T06:02:19.048Z,22.05
2023-07-10T06:04:46.517Z,22.13
2023-07-10T06:07:14.003Z,22.20
2023-07-10T06:09:41.450Z,21.87
2023-07-10T06:12:10.892Z,21.93
2023-07-10T06:14:38.415Z,21.57
2023-07-10T06:17:06.536Z,21.36
2023-07-10T06:19:34.024Z,21.28
2023-07-10T06:22:09.267Z,21.39
2023-07-10T06:24:36.734Z,21.41
2023-07-10T06:27:04.874Z,21.53
2023-07-10T06:29:35.624Z,21.47
2023-07-10T06:32:03.351Z,21.51
2023-07-10T06:34:31.241Z,21.93
2023-07-10T06:36:58.728Z,21.37
2023-07-10T06:39:28.763Z,21.55
2023-07-10T06:41:56.303Z,21.67
2023-07-10T06:44:23.862Z,21.74
2023-07-10T06:46:52.722Z,21.66
2023-07-10T06:49:20.179Z,21.75
2023-07-10T06:51:47.698Z,21.58
2023-07-10T06:54:15.186Z,21.76
2023-07-10T06:56:42.659Z,21.96
2023-07-10T06:59:10.135Z,22.13
2023-07-10T07:01:37.646Z,22.00
2023-07-10T07:04:06.572Z,22.16
2023-07-10T07:06:34.123Z,21.66
2023-07-10T07:09:01.608Z,22.01
2023-07-10T07:11:29.073Z,22.25
2023-07-10T07:13:56.648Z,21.77
2023-07-10T07:16:24.171Z,21.77
2023-07-10T07:19:02.626Z,22.20
2023-07-10T07:21:39.886Z,22.46
2023-07-10T07:24:07.617Z,22.32
2023-07-10T07:26:35.163Z,22.49
2023-07-10T07:29:02.761Z,22.60
2023-07-10T07:31:30.336Z,22.48
2023-07-10T07:33:57.974Z,22.70
2023-07-10T07:36:25.478Z,22.72
2023-07-10T07:38:54.338Z,22.79
2023-07-10T07:41:21.837Z,22.99
2023-07-10T07:43:50.411Z,23.10
2023-07-10T07:46:17.907Z,22.86
2023-07-10T07:48:45.415Z,22.52
2023-07-10T07:51:13.011Z,22.43
2023-07-10T07:53:42.465Z,22.80
2023-07-10T07:56:11.769Z,22.58
2023-07-10T07:58:39.295Z,22.90
2023-07-10T08:01:06.960Z,22.84
2023-07-10T08:03:35.092Z,22.62
2023-07-10T08:06:03.101Z,22.91
2023-07-10T08:08:30.791Z,22.63
2023-07-10T08:10:58.336Z,22.74
2023-07-10T08:13:27.303Z,22.82
2023-07-10T08:15:54.989Z,23.04
2023-07-10T08:18:22.599Z,22.93
2023-07-10T08:20:50.084Z,23.03
2023-07-10T08:23:17.949Z,23.36
2023-07-10T08:25:45.474Z,23.18
2023-07-10T08:28:12.992Z,23.33
2023-07-10T08:30:41.977Z,23.54
2023-07-10T08:33:11.637Z,23.74
2023-07-10T08:35:39.259Z,23.63
2023-07-10T08:38:07.264Z,23.57
2023-07-10T08:40:36.137Z,23.46
2023-07-10T08:43:23.784Z,22.79
2023-07-10T08:45:52.914Z,22.96
2023-07-10T08:48:28.897Z,23.41
2023-07-10T08:51:00.816Z,23.57
2023-07-10T08:53:32.785Z,23.28
2023-07-10T08:56:05.627Z,23.80
2023-07-10T08:58:38.406Z,24.14
2023-07-10T09:01:16.282Z,23.98
2023-07-10T09:03:47.983Z,23.41
2023-07-10T09:06:20.366Z,23.52
2023-07-10T09:08:52.214Z,23.79
2023-07-10T09:11:20.909Z,23.95
2023-07-10T09:13:55.208Z,24.09
2023-07-10T09:16:24.940Z,24.53
2023-07-10T09:18:56.048Z,24.10
2023-07-10T09:21:26.985Z,24.11
2023-07-10T09:23:54.557Z,24.12
2023-07-10T09:26:27.830Z,24.09
2023-07-10T09:29:03.367Z,24.43
2023-07-10T09:31:44.341Z,24.33
2023-07-10T09:34:13.164Z,24.70
2023-07-10T09:36:41.004Z,24.38
2023-07-10T09:39:08.644Z,24.77
2023-07-10T09:41:39.655Z,24.97
2023-07-10T09:44:24.260Z,24.85
2023-07-10T09:47:07.482Z,24.97
2023-07-10T09:49:39.049Z,25.23
2023-07-10T09:52:17.691Z,25.04
2023-07-10T09:54:45.179Z,24.90
2023-07-10T09:57:15.457Z,25.26
2023-07-10T09:59:49.336Z,25.30
2023-07-10T10:02:21.467Z,25.45
2023-07-10T10:04:54.942Z,25.33
2023-07-10T10:07:24.000Z,25.50
2023-07-10T10:10:22.798Z,25.94
2023-07-10T10:12:54.118Z,25.50
2023-07-10T10:15:30.068Z,25.60
2023-07-10T10:18:03.279Z,25.30
2023-07-10T10:20:34.344Z,25.51
2023-07-10T10:23:02.156Z,25.59
2023-07-10T10:25:36.213Z,25.64
2023-07-10T10:28:19.585Z,25.80
2023-07-10T10:30:51.031Z,26.36
2023-07-10T10:33:28.748Z,26.45
2023-07-10T10:35:58.430Z,25.94
2023-07-10T10:38:37.365Z,26.24
2023-07-10T10:41:18.776Z,25.97
2023-07-10T10:43:55.508Z,25.99
2023-07-10T10:46:37.023Z,26.45
2023-07-10T10:49:34.320Z,25.94
2023-07-10T10:52:11.295Z,26.46
2023-07-10T10:54:49.498Z,26.09
2023-07-10T10:57:30.246Z,26.37
2023-07-10T11:00:12.644Z,25.83
2023-07-10T11:02:56.380Z,25.55
2023-07-10T11:05:36.332Z,26.06
2023-07-10T11:08:07.544Z,26.50
2023-07-10T11:10:38.098Z,26.33
2023-07-10T11:13:07.054Z,26.84
2023-07-10T11:15:35.543Z,27.05
2023-07-10T11:18:03.684Z,26.97
2023-07-10T11:20:32.630Z,26.92
2023-07-10T11:23:01.636Z,27.42
2023-07-10T11:25:34.672Z,27.55
2023-07-10T11:28:19.604Z,26.02
2023-07-10T11:30:47.375Z,26.84
2023-07-10T11:33:19.790Z,27.08
2023-07-10T11:36:14.848Z,27.38
2023-07-10T11:38:57.581Z,27.28
2023-07-10T11:41:29.739Z,27.27
2023-07-10T11:44:20.775Z,27.03
2023-07-10T11:47:02.603Z,27.53
2023-07-10T11:49:45.593Z,27.63
2023-07-10T11:52:33.895Z,27.97
2023-07-10T11:55:07.326Z,27.64
2023-07-10T11:57:36.721Z,27.90
2023-07-10T12:00:20.821Z,27.90
2023-07-10T12:02:50.549Z,28.28
2023-07-10T12:05:21.984Z,28.01
2023-07-10T12:08:00.046Z,27.88
2023-07-10T12:10:29.922Z,28.10
2023-07-10T12:12:58.732Z,28.02
2023-07-10T12:15:28.081Z,28.07
2023-07-10T12:17:56.768Z,28.82
2023-07-10T12:20:29.587Z,28.72
2023-07-10T12:23:05.585Z,28.80
2023-07-10T12:25:33.066Z,27.95
2023-07-10T12:28:25.074Z,28.23
2023-07-10T12:30:52.369Z,28.33
2023-07-10T12:33:31.994Z,28.43
2023-07-10T12:36:04.523Z,29.07
2023-07-10T12:38:34.832Z,29.50
2023-07-10T12:41:04.227Z,28.94
2023-07-10T12:43:31.777Z,28.98
2023-07-10T12:46:00.292Z,29.47
2023-07-10T12:48:31.725Z,29.14
2023-07-10T12:51:02.414Z,28.74
2023-07-10T12:53:36.430Z,29.25
2023-07-10T12:56:10.102Z,29.18
2023-07-10T12:58:38.682Z,29.30
2023-07-10T13:01:20.897Z,29.68
2023-07-10T13:04:01.277Z,30.15
2023-07-10T13:06:28.825Z,30.26
2023-07-10T13:09:01.837Z,30.13
2023-07-10T13:11:41.379Z,30.18
2023-07-10T13:14:17.120Z,29.82
2023-07-10T13:16:46.495Z,29.49
2023-07-10T13:19:13.988Z,29.92
2023-07-10T13:21:41.469Z,29.80
2023-07-10T13:24:10.357Z,29.93
2023-07-10T13:26:37.806Z,29.72
2023-07-10T13:29:13.176Z,29.88
2023-07-10T13:31:41.044Z,29.56
2023-07-10T13:34:12.564Z,29.52
2023-07-10T13:36:41.574Z,29.06
2023-07-10T13:39:17.280Z,28.86
2023-07-10T13:41:46.326Z,29.26
2023-07-10T13:44:14.666Z,29.59
2023-07-10T13:46:42.621Z,29.89
2023-07-10T13:49:13.847Z,30.29
2023-07-10T13:51:42.435Z,30.36
2023-07-10T13:54:10.421Z,30.07
2023-07-10T13:56:42.247Z,29.71
2023-07-10T13:59:15.805Z,30.15
2023-07-10T14:01:43.385Z,30.32
2023-07-10T14:04:11.064Z,30.63
2023-07-10T14:06:40.686Z,30.67
2023-07-10T14:09:13.538Z,30.79
2023-07-10T14:11:43.568Z,30.78
2023-07-10T14:14:15.241Z,31.00
2023-07-10T14:16:43.280Z,30.51
2023-07-10T14:19:16.710Z,30.08
2023-07-10T14:21:44.663Z,30.30
2023-07-10T14:24:12.157Z,30.15
2023-07-10T14:26:40.046Z,30.53
2023-07-10T14:29:14.933Z,30.12
2023-07-10T14:31:42.481Z,29.87
2023-07-10T14:34:09.981Z,29.92
2023-07-10T14:36:37.636Z,29.48
2023-07-10T14:39:05.209Z,29.72
2023-07-10T14:41:32.747Z,29.59
2023-07-10T14:44:00.416Z,29.48
2023-07-10T14:46:34.543Z,29.10
2023-07-10T14:49:02.446Z,28.94
2023-07-10T14:51:29.890Z,28.92
2023-07-10T14:53:57.398Z,28.74
2023-07-10T14:56:24.971Z,28.75
2023-07-10T14:58:52.420Z,28.63
2023-07-10T15:01:20.004Z,28.62
2023-07-10T15:03:49.084Z,28.55
2023-07-10T15:06:26.676Z,28.63
2023-07-10T15:08:54.455Z,28.57
2023-07-10T15:11:23.716Z,29.07
2023-07-10T15:13:52.096Z,29.09
2023-07-10T15:16:21.819Z,29.40
2023-07-10T15:18:51.298Z,29.39
2023-07-10T15:21:21.694Z,29.54
2023-07-10T15:23:49.463Z,29.42
2023-07-10T15:26:17.780Z,29.60
2023-07-10T15:28:45.284Z,29.33
2023-07-10T15:31:14.576Z,29.21
2023-07-10T15:33:45.236Z,29.41
2023-07-10T15:36:19.206Z,29.49
2023-07-10T15:38:47.211Z,29.59
2023-07-10T15:41:22.794Z,29.55
2023-07-10T15:43:50.429Z,29.17
2023-07-10T15:46:18.357Z,29.43
2023-07-10T15:48:45.924Z,29.48
2023-07-10T15:51:23.575Z,29.61
2023-07-10T15:53:51.190Z,29.66
2023-07-10T15:56:18.737Z,29.64
2023-07-10T15:58:46.974Z,29.48
2023-07-10T16:01:19.221Z,29.43
2023-07-10T16:03:51.311Z,29.34
2023-07-10T16:06:20.196Z,29.18
2023-07-10T16:08:48.095Z,29.19
2023-07-10T16:11:18.414Z,29.16
2023-07-10T16:13:48.654Z,29.16
2023-07-10T16:16:16.692Z,28.99
2023-07-10T16:18:44.248Z,28.82
2023-07-10T16:21:16.140Z,28.86
2023-07-10T16:23:45.979Z,28.59
2023-07-10T16:26:15.203Z,28.54
2023-07-10T16:28:43.256Z,28.38
2023-07-10T16:31:14.153Z,28.39
2023-07-10T16:33:41.688Z,28.38
2023-07-10T16:36:13.464Z,28.29
2023-07-10T16:38:41.007Z,28.23
2023-07-10T16:41:15.687Z,28.28
2023-07-10T16:43:43.742Z,28.26
2023-07-10T16:46:12.843Z,28.16
2023-07-10T16:48:41.352Z,28.06
2023-07-10T16:51:17.724Z,28.04
2023-07-10T16:53:45.644Z,27.98
2023-07-10T16:56:17.004Z,28.02
2023-07-10T16:58:45.432Z,27.94
2023-07-10T17:01:19.543Z,27.83
2023-07-10T17:03:49.438Z,27.92
2023-07-10T17:06:18.683Z,27.90
2023-07-10T17:08:46.223Z,27.91
2023-07-10T17:11:22.165Z,27.93
2023-07-10T17:13:49.757Z,27.98
2023-07-10T17:16:17.386Z,27.94
2023-07-10T17:18:44.890Z,27.92
2023-07-10T17:21:14.280Z,27.85
2023-07-10T17:23:43.204Z,27.86
2023-07-10T17:26:17.929Z,27.84
2023-07-10T17:28:46.460Z,27.86
2023-07-10T17:31:24.270Z,27.94
2023-07-10T17:33:53.565Z,27.89
2023-07-10T17:36:21.860Z,27.86
2023-07-10T17:38:49.968Z,27.69
2023-07-10T17:41:21.967Z,27.74
2023-07-10T17:43:55.121Z,27.50
2023-07-10T17:46:22.854Z,27.49
2023-07-10T17:48:50.570Z,27.65
2023-07-10T17:51:26.197Z,27.59
2023-07-10T17:53:54.824Z,27.67
2023-07-10T17:56:24.893Z,27.62
2023-07-10T17:58:54.684Z,27.46
2023-07-10T18:01:25.548Z,27.49
2023-07-10T18:03:56.844Z,27.46
2023-07-10T18:06:24.622Z,27.44
2023-07-10T18:08:52.153Z,27.23
2023-07-10T18:11:23.582Z,27.40
2023-07-10T18:13:53.864Z,27.22
2023-07-10T18:16:21.426Z,27.22
2023-07-10T18:18:49.032Z,27.00
2023-07-10T18:21:21.593Z,27.05
2023-07-10T18:23:50.078Z,26.92
2023-07-10T18:26:18.992Z,26.82
2023-07-10T18:28:47.064Z,26.80
2023-07-10T18:31:19.988Z,26.68
2023-07-10T18:33:48.216Z,26.76
2023-07-10T18:36:17.275Z,26.73
2023-07-10T18:38:45.122Z,26.73
2023-07-10T18:41:17.878Z,26.52
2023-07-10T18:43:46.625Z,26.56
2023-07-10T18:46:15.354Z,26.43
2023-07-10T18:48:44.654Z,26.38
2023-07-10T18:51:17.101Z,25.92
2023-07-10T18:53:44.846Z,25.83
2023-07-10T18:56:12.725Z,25.79
2023-07-10T18:58:42.381Z,25.73
2023-07-10T19:01:10.437Z,25.32
2023-07-10T19:03:38.542Z,25.27
2023-07-10T19:06:18.397Z,25.18
2023-07-10T19:08:46.762Z,24.84
2023-07-10T19:11:15.995Z,24.94
2023-07-10T19:13:44.154Z,24.55
2023-07-10T19:16:22.238Z,24.50
2023-07-10T19:18:54.205Z,24.55
2023-07-10T19:21:23.112Z,24.19
2023-07-10T19:23:50.702Z,23.85
2023-07-10T19:26:19.354Z,23.38
2023-07-10T19:28:47.406Z,23.34
2023-07-10T19:31:16.797Z,23.42
2023-07-10T19:33:47.663Z,23.62
2023-07-10T19:36:18.987Z,23.18
2023-07-10T19:38:47.973Z,23.47
2023-07-10T19:41:15.683Z,23.00
2023-07-10T19:43:43.721Z,22.97
2023-07-10T19:46:16.855Z,23.05
2023-07-10T19:48:44.918Z,23.23
2023-07-10T19:51:12.585Z,23.34
2023-07-10T19:53:40.111Z,23.15
2023-07-10T19:56:21.324Z,23.42
2023-07-10T19:58:51.393Z,23.59
2023-07-10T20:01:21.171Z,23.62
2023-07-10T20:03:48.833Z,23.48
2023-07-10T20:06:25.536Z,23.41
2023-07-10T20:08:53.767Z,23.22
2023-07-10T20:11:22.962Z,23.43
2023-07-10T20:13:50.883Z,23.37
2023-07-10T20:16:23.536Z,23.38
2023-07-10T20:18:51.060Z,23.28
2023-07-10T20:21:19.517Z,23.29
2023-07-10T20:23:47.422Z,23.08
2023-07-10T20:26:16.870Z,22.62
2023-07-10T20:28:46.532Z,22.60
2023-07-10T20:31:16.303Z,22.48
2023-07-10T20:33:44.395Z,22.97
2023-07-10T20:36:25.491Z,23.20
2023-07-10T20:38:54.018Z,23.09
2023-07-10T20:41:23.658Z,22.90
2023-07-10T20:43:52.500Z,22.95
2023-07-10T20:46:22.702Z,22.88
2023-07-10T20:48:51.252Z,22.75
2023-07-10T20:51:23.613Z,22.78
2023-07-10T20:53:51.824Z,22.77
2023-07-10T20:56:25.375Z,22.70
2023-07-10T20:58:55.111Z,22.75
2023-07-10T21:01:26.865Z,22.66
2023-07-10T21:03:54.776Z,22.67
2023-07-10T21:06:25.451Z,22.51
2023-07-10T21:08:54.912Z,22.69
2023-07-10T21:11:24.663Z,22.80
2023-07-10T21:13:55.896Z,22.71
2023-07-10T21:16:26.218Z,22.63
2023-07-10T21:18:54.462Z,22.68
2023-07-10T21:21:22.378Z,22.64
2023-07-10T21:23:50.809Z,22.92
2023-07-10T21:26:20.410Z,22.97
2023-07-10T21:28:49.497Z,22.81
2023-07-10T21:31:20.798Z,22.34
2023-07-10T21:33:51.264Z,22.21
2023-07-10T21:36:20.372Z,22.40
2023-07-10T21:38:48.226Z,22.59
2023-07-10T21:41:18.676Z,22.50
2023-07-10T21:43:48.335Z,22.69
2023-07-10T21:46:24.304Z,22.56
2023-07-10T21:48:52.417Z,22.63
2023-07-10T21:51:20.274Z,22.65
2023-07-10T21:53:48.129Z,22.84
2023-07-10T21:56:18.617Z,22.89
2023-07-10T21:58:47.944Z,22.97
2023-07-10T22:01:18.603Z,22.78
2023-07-10T22:03:46.944Z,22.92
2023-07-10T22:06:16.114Z,22.83
2023-07-10T22:08:44.102Z,22.93
2023-07-10T22:11:14.952Z,23.00
2023-07-10T22:13:43.274Z,23.02
2023-07-10T22:16:16.622Z,23.04
2023-07-10T22:18:46.963Z,22.98
2023-07-10T22:21:15.261Z,22.80
2023-07-10T22:23:42.767Z,22.99
2023-07-10T22:26:11.455Z,22.96
2023-07-10T22:28:39.651Z,22.90
2023-07-10T22:31:11.635Z,22.77
2023-07-10T22:33:40.177Z,22.97
2023-07-10T22:36:09.496Z,23.06
2023-07-10T22:38:37.087Z,22.99
2023-07-10T22:41:07.920Z,22.92
2023-07-10T22:43:41.491Z,22.80
2023-07-10T22:46:14.545Z,22.56
2023-07-10T22:48:42.333Z,22.56
2023-07-10T22:51:14.429Z,22.50
2023-07-10T22:53:42.189Z,22.53
2023-07-10T22:56:11.912Z,22.57
2023-07-10T22:58:39.477Z,22.56
2023-07-10T23:01:07.070Z,22.42
2023-07-10T23:03:35.031Z,22.54
2023-07-10T23:06:04.211Z,22.27
2023-07-10T23:08:34.675Z,22.40
2023-07-10T23:11:04.385Z,22.42
2023-07-10T23:13:32.282Z,22.00
2023-07-10T23:16:00.163Z,22.00
2023-07-10T23:18:27.773Z,21.98
2023-07-10T23:20:55.280Z,22.03
2023-07-10T23:23:22.784Z,22.05
2023-07-10T23:25:51.660Z,22.16
2023-07-10T23:28:19.208Z,22.12
2023-07-10T23:30:46.836Z,21.89
2023-07-10T23:33:15.335Z,21.85
2023-07-10T23:35:43.348Z,21.03
2023-07-10T23:38:12.152Z,21.66
2023-07-10T23:40:39.806Z,21.74
2023-07-10T23:43:08.638Z,21.69
2023-07-10T23:45:36.168Z,21.33
2023-07-10T23:48:03.804Z,21.54
2023-07-10T23:50:31.380Z,21.59
2023-07-10T23:52:58.898Z,21.53
2023-07-10T23:55:26.412Z,21.69
2023-07-10T23:57:53.916Z,21.16
